Time;durP1;ratioP1;P1;durP2;ratioP2;P2;SDS_P1;SDS_P2;PMS_P1;PMS_P2;Temp;Humidity;BMP_temperature;BMP_pressure;BME280_temperature;BME280_humidity;BME280_pressure;Samples;Min_cycle;Max_cycle;Signal;HPM_P1;HPM_P2
2023/04/15 00:00:33;;;;;;;5.67;2.00;;;;;;;11.25;100.00;100567.47;2532955;23;20150;-67
2023/04/15 00:01:35;;;;;;;4.83;1.90;;;;;;;11.28;100.00;100579.66;2531636;23;20516;-67
2023/04/15 00:02:36;;;;;;;3.93;1.33;;;;;;;10.64;100.00;100475.25;2532854;23;20158;-67
2023/04/15 00:03:37;;;;;;;5.70;1.73;;;;;;;11.29;100.00;100564.59;2532790;23;20378;-67
2023/04/15 00:04:37;;;;;;;3.83;1.60;;;;;;;10.42;100.00;100424.38;2532929;23;20158;-67
2023/04/15 00:05:37;;;;;;;3.40;1.40;;;;;;;11.31;100.00;100576.00;2532864;23;20150;-67
2023/04/15 00:06:41;;;;;;;5.83;1.37;;;;;;;11.36;100.00;100575.47;2532733;23;20160;-67
2023/04/15 00:07:41;;;;;;;2.83;1.17;;;;;;;10.59;100.00;100458.34;2532220;23;20151;-67
2023/04/15 00:08:42;;;;;;;4.80;1.50;;;;;;;10.89;100.00;100493.97;2532813;23;20382;-67
2023/04/15 00:09:43;;;;;;;3.37;1.43;;;;;;;11.16;100.00;100549.88;2532724;23;20155;-67
2023/04/15 00:10:45;;;;;;;3.03;1.47;;;;;;;11.32;100.00;100575.56;2532711;23;20496;-67
2023/04/15 00:11:45;;;;;;;2.90;1.60;;;;;;;11.34;100.00;100578.72;2532061;23;20941;-67
2023/04/15 00:12:46;;;;;;;5.13;1.97;;;;;;;11.32;100.00;100570.03;2532804;23;20727;-67
2023/04/15 00:13:46;;;;;;;6.40;2.00;;;;;;;11.33;100.00;100570.81;2532854;23;20209;-67
2023/04/15 00:14:47;;;;;;;3.07;1.53;;;;;;;11.34;100.00;100575.94;2532824;23;20154;-67
2023/04/15 00:15:47;;;;;;;6.27;2.27;;;;;;;11.39;100.00;100571.81;2532925;23;20162;-67
2023/04/15 00:16:54;;;;;;;3.87;1.90;;;;;;;11.39;100.00;100583.72;2532754;23;20159;-67
2023/04/15 00:17:54;;;;;;;6.57;2.33;;;;;;;11.41;100.00;100566.59;2532282;23;20468;-67
2023/04/15 00:18:55;;;;;;;5.73;1.83;;;;;;;11.34;100.00;100559.28;2532779;23;20457;-67
2023/04/15 00:19:56;;;;;;;3.97;1.80;;;;;;;11.44;100.00;100576.84;2532788;23;20151;-67
2023/04/15 00:20:57;;;;;;;6.37;1.97;;;;;;;10.90;100.00;100515.72;2532821;23;20417;-67
2023/04/15 00:21:59;;;;;;;3.80;2.00;;;;;;;10.72;100.00;100471.06;2531925;23;20163;-67
2023/04/15 00:22:59;;;;;;;4.00;1.80;;;;;;;11.46;100.00;100569.63;2532974;23;20382;-67
2023/04/15 00:24:00;;;;;;;4.37;1.67;;;;;;;11.49;100.00;100573.53;2532909;23;20387;-67
2023/04/15 00:25:02;;;;;;;4.57;1.63;;;;;;;11.42;100.00;100574.50;2532739;23;20678;-67
2023/04/15 00:26:02;;;;;;;4.37;1.50;;;;;;;11.36;100.00;100572.69;2532731;23;20665;-67
2023/04/15 00:27:03;;;;;;;4.20;1.90;;;;;;;10.99;100.00;100520.63;2533069;23;20781;-67
2023/04/15 00:28:03;;;;;;;5.20;2.00;;;;;;;11.14;100.00;100538.44;2531983;23;20616;-67
2023/04/15 00:29:04;;;;;;;4.27;1.83;;;;;;;10.97;100.00;100503.66;2532892;23;20440;-67
2023/04/15 00:30:06;;;;;;;4.83;1.70;;;;;;;11.35;100.00;100576.69;2532652;23;20150;-67
2023/04/15 00:31:06;;;;;;;4.63;1.53;;;;;;;11.36;100.00;100578.25;2532884;23;20190;-67
2023/04/15 00:32:06;;;;;;;3.23;1.70;;;;;;;10.77;100.00;100480.84;2531879;23;20868;-67
2023/04/15 00:33:07;;;;;;;6.10;1.90;;;;;;;11.40;100.00;100563.06;2520026;23;20477;-67
2023/04/15 00:34:08;;;;;;;5.37;1.80;;;;;;;11.15;100.00;100526.13;2519719;23;20165;-67
2023/04/15 00:35:08;;;;;;;2.90;1.60;;;;;;;11.40;100.00;100567.84;2532744;23;20253;-67
2023/04/15 00:36:10;;;;;;;5.00;1.20;;;;;;;11.46;100.00;100571.63;2532719;23;20166;-67
2023/04/15 00:37:10;;;;;;;2.47;1.20;;;;;;;11.45;100.00;100573.63;2532972;23;20165;-67
2023/04/15 00:38:12;;;;;;;3.77;1.70;;;;;;;11.20;100.00;100534.69;2519401;23;20458;-67
2023/04/15 00:39:13;;;;;;;3.43;1.50;;;;;;;11.46;100.00;100572.41;2519757;23;20151;-67
2023/04/15 00:40:17;;;;;;;5.63;1.50;;;;;;;11.47;100.00;100570.44;2532586;23;20931;-67
2023/04/15 00:41:18;;;;;;;4.77;1.60;;;;;;;11.43;100.00;100576.06;2532920;23;20154;-67
2023/04/15 00:42:20;;;;;;;3.43;1.40;;;;;;;10.84;100.00;100484.22;2531699;23;20429;-67
2023/04/15 00:43:21;;;;;;;6.30;1.30;;;;;;;11.05;100.00;100527.19;2532318;23;20185;-67
2023/04/15 00:44:21;;;;;;;2.77;1.10;;;;;;;11.47;100.00;100581.53;2532744;23;20382;-67
2023/04/15 00:45:22;;;;;;;3.60;1.27;;;;;;;11.46;100.00;100577.97;2532843;23;20193;-67
2023/04/15 00:46:24;;;;;;;3.73;1.37;;;;;;;11.45;100.00;100581.97;2532545;23;20165;-67
2023/04/15 00:47:28;;;;;;;2.03;1.00;;;;;;;11.44;100.00;100576.84;2532826;23;20162;-67
2023/04/15 00:48:29;;;;;;;2.77;1.03;;;;;;;11.44;100.00;100580.41;2532287;23;20738;-67
2023/04/15 00:49:29;;;;;;;3.57;1.10;;;;;;;11.48;100.00;100585.84;2532543;23;20382;-67
2023/04/15 00:50:30;;;;;;;3.57;0.80;;;;;;;11.51;100.00;100587.72;2532857;23;20367;-67
2023/04/15 00:51:32;;;;;;;3.83;1.03;;;;;;;11.48;100.00;100586.63;2532213;23;20185;-67
2023/04/15 00:52:33;;;;;;;3.03;0.90;;;;;;;11.48;100.00;100583.06;2532753;23;20146;-66
2023/04/15 00:53:34;;;;;;;2.60;1.10;;;;;;;11.54;99.42;100584.84;2532622;23;20415;-67
2023/04/15 00:54:35;;;;;;;3.07;1.03;;;;;;;11.56;98.88;100592.75;2532681;23;20848;-67
2023/04/15 00:55:36;;;;;;;3.50;1.00;;;;;;;10.58;98.69;100426.31;2532687;23;20205;-67
2023/04/15 00:56:38;;;;;;;2.77;1.10;;;;;;;11.56;97.57;100587.19;2532769;23;20380;-67
2023/04/15 00:57:39;;;;;;;2.00;0.80;;;;;;;11.36;97.61;100550.50;2532748;23;20370;-67
2023/04/15 00:58:40;;;;;;;2.53;0.77;;;;;;;11.59;97.22;100589.91;2532392;23;20426;-67
2023/04/15 00:59:41;;;;;;;2.37;0.90;;;;;;;11.66;96.94;100586.13;2532237;23;20441;-67
2023/04/15 01:00:42;;;;;;;2.83;0.90;;;;;;;11.19;96.71;100535.94;2532702;23;20444;-66
2023/04/15 01:01:43;;;;;;;2.33;0.67;;;;;;;11.73;96.90;100594.28;2531865;23;20146;-67
2023/04/15 01:02:44;;;;;;;3.77;1.00;;;;;;;11.45;96.93;100545.09;2532726;23;20181;-67
2023/04/15 01:03:44;;;;;;;3.47;0.90;;;;;;;10.65;97.45;100421.38;2532603;23;20388;-67
2023/04/15 01:04:45;;;;;;;2.67;0.80;;;;;;;11.77;97.01;100600.50;2532593;23;20151;-67
2023/04/15 01:05:46;;;;;;;2.90;0.97;;;;;;;11.84;97.12;100609.41;2532791;23;20601;-67
2023/04/15 01:06:46;;;;;;;1.77;0.80;;;;;;;11.47;97.07;100551.75;2532826;23;20155;-67
2023/04/15 01:07:47;;;;;;;2.77;0.90;;;;;;;11.83;97.09;100616.16;2532861;23;20602;-67
2023/04/15 01:08:48;;;;;;;1.47;0.80;;;;;;;11.68;97.46;100580.94;2532736;23;20515;-67
2023/04/15 01:09:48;;;;;;;2.43;0.87;;;;;;;11.92;98.33;100616.31;2532038;23;20184;-67
2023/04/15 01:10:49;;;;;;;2.07;0.60;;;;;;;11.97;98.73;100610.22;2532421;23;20151;-67
2023/04/15 01:11:50;;;;;;;3.27;0.70;;;;;;;11.68;98.63;100569.84;2531927;23;20158;-67
2023/04/15 01:12:51;;;;;;;1.70;0.77;;;;;;;11.96;99.20;100610.66;2532593;23;20233;-67
2023/04/15 01:13:52;;;;;;;2.67;0.83;;;;;;;11.66;99.19;100564.72;2532740;23;20152;-67
2023/04/15 01:14:53;;;;;;;3.57;0.83;;;;;;;12.06;99.25;100618.69;2532619;23;20582;-67
2023/04/15 01:15:55;;;;;;;2.47;0.87;;;;;;;12.07;99.05;100613.88;2532696;23;20151;-67
2023/04/15 01:16:56;;;;;;;2.47;0.80;;;;;;;12.00;98.93;100606.53;2532672;23;20388;-67
2023/04/15 01:18:01;;;;;;;1.73;0.63;;;;;;;11.64;99.31;100550.50;2532637;23;20410;-67
2023/04/15 01:19:02;;;;;;;3.23;0.70;;;;;;;12.11;99.67;100609.78;2532739;23;20140;-67
2023/04/15 01:20:04;;;;;;;2.40;0.90;;;;;;;11.29;99.66;100498.00;2531894;23;20473;-67
2023/04/15 01:21:05;;;;;;;2.43;0.70;;;;;;;12.03;99.95;100602.09;2532883;23;20619;-67
2023/04/15 01:22:05;;;;;;;2.70;0.80;;;;;;;11.94;100.00;100590.88;2531555;23;20383;-67
2023/04/15 01:23:06;;;;;;;1.93;0.73;;;;;;;11.77;100.00;100572.72;2532781;23;20155;-67
2023/04/15 01:24:09;;;;;;;2.83;0.70;;;;;;;12.00;100.00;100616.88;2532428;23;20156;-67
2023/04/15 01:25:16;;;;;;;2.00;0.50;;;;;;;11.27;100.00;100508.78;2532593;23;20295;-67
2023/04/15 01:26:17;;;;;;;1.90;0.70;;;;;;;11.44;100.00;100538.00;2532412;23;20374;-67
2023/04/15 01:27:18;;;;;;;3.33;1.00;;;;;;;12.03;100.00;100616.78;2532933;23;20471;-67
2023/04/15 01:28:19;;;;;;;2.80;0.70;;;;;;;12.03;100.00;100618.75;2532674;23;20649;-67
2023/04/15 01:29:19;;;;;;;3.27;0.80;;;;;;;12.05;100.00;100624.66;2532564;23;20236;-67
2023/04/15 01:30:20;;;;;;;2.33;0.80;;;;;;;12.03;100.00;100618.75;2531814;23;20215;-67
2023/04/15 01:31:21;;;;;;;1.90;0.60;;;;;;;12.05;100.00;100621.88;2532359;23;20182;-67
2023/04/15 01:32:21;;;;;;;1.17;0.60;;;;;;;12.05;100.00;100621.88;2532047;23;20480;-67
2023/04/15 01:33:22;;;;;;;1.87;0.70;;;;;;;12.07;100.00;100625.00;2532744;23;20624;-67
2023/04/15 01:34:22;;;;;;;1.87;0.60;;;;;;;12.05;100.00;100630.22;2532553;23;20158;-67
2023/04/15 01:35:23;;;;;;;5.40;0.77;;;;;;;12.00;100.00;100620.41;2532593;23;20197;-67
2023/04/15 01:36:23;;;;;;;2.60;1.17;;;;;;;11.67;100.00;100593.25;2532600;23;20186;-67
2023/04/15 01:37:25;;;;;;;1.53;0.60;;;;;;;11.91;100.00;100627.84;2532797;23;20151;-67
2023/04/15 01:38:26;;;;;;;3.43;0.70;;;;;;;11.70;100.00;100612.59;2532587;23;20557;-67
2023/04/15 01:39:27;;;;;;;3.57;0.77;;;;;;;11.88;100.00;100628.75;2532599;23;20870;-67
2023/04/15 01:40:27;;;;;;;4.50;0.73;;;;;;;11.88;100.00;100631.53;2531701;23;20779;-67
2023/04/15 01:41:28;;;;;;;2.23;0.60;;;;;;;11.87;100.00;100625.19;2532099;23;20154;-67
2023/04/15 01:42:28;;;;;;;1.97;0.97;;;;;;;11.87;100.00;100624.38;2532233;23;20162;-67
2023/04/15 01:43:28;;;;;;;2.43;0.80;;;;;;;11.86;100.00;100636.72;2519561;23;20163;-67
2023/04/15 01:44:29;;;;;;;3.10;0.70;;;;;;;11.83;100.00;100640.41;2519811;23;20164;-67
2023/04/15 01:45:30;;;;;;;2.40;0.70;;;;;;;11.77;100.00;100642.13;2532563;23;20152;-66
2023/04/15 01:46:30;;;;;;;2.70;0.60;;;;;;;11.78;100.00;100641.69;2532466;23;20147;-67
2023/04/15 01:47:31;;;;;;;3.00;0.80;;;;;;;11.71;100.00;100630.81;2532717;23;20219;-67
2023/04/15 01:48:32;;;;;;;2.07;0.67;;;;;;;11.75;100.00;100645.38;2532583;23;20149;-67
2023/04/15 01:49:32;;;;;;;1.53;0.60;;;;;;;11.32;100.00;100575.56;2532883;23;20449;-67
2023/04/15 01:50:35;;;;;;;1.70;0.63;;;;;;;11.40;100.00;100592.81;2532345;23;20465;-67
2023/04/15 01:51:36;;;;;;;2.47;0.70;;;;;;;11.70;100.00;100640.34;2531325;23;20179;-67
2023/04/15 01:52:36;;;;;;;3.40;0.70;;;;;;;11.66;100.00;100639.69;2532381;23;20378;-67
2023/04/15 01:53:36;;;;;;;2.63;0.90;;;;;;;11.68;100.00;100639.25;2532510;23;20548;-67
2023/04/15 01:54:37;;;;;;;2.10;0.80;;;;;;;11.31;100.00;100578.78;2532598;23;20157;-67
2023/04/15 01:55:38;;;;;;;2.37;0.60;;;;;;;11.69;100.00;100640.78;2532533;23;20151;-68
2023/04/15 01:56:38;;;;;;;1.20;0.50;;;;;;;11.66;100.00;100641.66;2532680;23;20556;-67
2023/04/15 01:57:39;;;;;;;2.73;0.53;;;;;;;11.69;100.00;100643.56;2532559;23;20229;-67
2023/04/15 01:58:40;;;;;;;3.40;0.80;;;;;;;11.68;100.00;100642.00;2532298;23;20194;-67
2023/04/15 01:59:41;;;;;;;2.80;0.80;;;;;;;11.67;100.00;100638.44;2532440;23;20514;-67
2023/04/15 02:00:41;;;;;;;3.60;1.00;;;;;;;11.50;100.00;100609.16;2532563;23;20153;-67
2023/04/15 02:01:42;;;;;;;2.37;0.90;;;;;;;11.01;100.00;100538.41;2531000;23;20608;-67
2023/04/15 02:02:42;;;;;;;2.27;0.70;;;;;;;11.70;100.00;100643.13;2532559;23;20545;-67
2023/04/15 02:03:42;;;;;;;2.03;0.87;;;;;;;11.72;100.00;100643.47;2519638;23;20162;-67
2023/04/15 02:04:43;;;;;;;2.57;1.00;;;;;;;11.75;100.00;100647.34;2519561;23;20502;-67
2023/04/15 02:05:44;;;;;;;4.13;1.23;;;;;;;11.75;100.00;100653.69;2532515;23;20208;-67
2023/04/15 02:06:45;;;;;;;2.43;0.90;;;;;;;11.59;100.00;100625.97;2532609;23;20175;-67
2023/04/15 02:07:45;;;;;;;2.40;1.13;;;;;;;11.63;100.00;100629.44;2533292;23;20170;-67
2023/04/15 02:08:45;;;;;;;4.10;0.87;;;;;;;11.78;100.00;100657.59;2533387;23;20154;-67
2023/04/15 02:09:46;;;;;;;2.87;0.87;;;;;;;11.74;100.00;100649.34;2533467;23;20267;-67
2023/04/15 02:10:46;;;;;;;4.57;1.20;;;;;;;11.69;100.00;100643.56;2533284;23;20154;-67
2023/04/15 02:11:47;;;;;;;3.17;0.93;;;;;;;11.73;100.00;100647.03;2531827;23;20157;-67
2023/04/15 02:12:48;;;;;;;1.93;0.70;;;;;;;11.77;100.00;100656.00;2533387;23;20671;-67
2023/04/15 02:13:48;;;;;;;2.13;0.63;;;;;;;11.76;100.00;100657.25;2533353;23;20165;-67
2023/04/15 02:14:48;;;;;;;2.97;0.83;;;;;;;11.74;100.00;100657.66;2533169;23;20174;-67
2023/04/15 02:15:51;;;;;;;2.00;0.77;;;;;;;11.72;100.00;100670.44;2533384;23;20161;-67
2023/04/15 02:16:51;;;;;;;2.47;1.00;;;;;;;11.70;100.00;100659.78;2533217;23;20151;-67
2023/04/15 02:17:54;;;;;;;3.60;0.90;;;;;;;11.29;100.00;100604.22;2533607;23;20454;-67
2023/04/15 02:18:54;;;;;;;2.43;0.80;;;;;;;11.58;100.00;100656.94;2533357;23;20496;-67
2023/04/15 02:19:55;;;;;;;2.80;0.77;;;;;;;11.22;100.00;100614.72;2533256;23;20378;-67
2023/04/15 02:20:57;;;;;;;4.40;0.80;;;;;;;11.56;100.00;100662.13;2520410;23;20246;-67
2023/04/15 02:21:57;;;;;;;3.43;0.83;;;;;;;11.58;100.00;100668.03;2519471;23;20868;-67
2023/04/15 02:22:58;;;;;;;2.40;0.80;;;;;;;11.54;100.00;100668.09;2532901;23;20726;-67
2023/04/15 02:23:58;;;;;;;3.70;1.00;;;;;;;11.53;100.00;100677.66;2533310;23;20161;-67
2023/04/15 02:24:59;;;;;;;2.20;0.70;;;;;;;10.92;100.00;100570.75;2533252;23;20158;-67
2023/04/15 02:25:59;;;;;;;2.50;0.80;;;;;;;11.58;100.00;100676.38;2533020;23;20187;-67
2023/04/15 02:27:01;;;;;;;2.07;0.70;;;;;;;11.59;100.00;100683.50;2533443;23;20599;-67
2023/04/15 02:28:01;;;;;;;2.77;0.80;;;;;;;11.54;100.00;100668.09;2533174;23;20151;-67
2023/04/15 02:29:02;;;;;;;2.80;1.10;;;;;;;11.60;100.00;100688.63;2533145;23;20879;-67
2023/04/15 02:30:03;;;;;;;2.93;0.90;;;;;;;11.27;100.00;100623.25;2533143;23;20159;-67
2023/04/15 02:31:05;;;;;;;1.93;0.63;;;;;;;11.49;100.00;100659.56;2533397;23;20385;-67
2023/04/15 02:32:06;;;;;;;1.90;0.63;;;;;;;11.28;100.00;100637.94;2532272;23;20158;-67
2023/04/15 02:33:06;;;;;;;2.93;0.80;;;;;;;11.57;100.00;100674.78;2532738;23;20378;-67
2023/04/15 02:34:07;;;;;;;2.07;0.90;;;;;;;11.55;100.00;100678.00;2533131;23;20178;-67
2023/04/15 02:35:07;;;;;;;2.53;0.80;;;;;;;11.53;100.00;100705.41;2533384;23;20646;-67
2023/04/15 02:36:10;;;;;;;3.17;0.60;;;;;;;11.55;100.00;100675.25;2533104;23;20166;-67
2023/04/15 02:37:11;;;;;;;3.07;1.00;;;;;;;11.57;100.00;100681.13;2533380;23;20732;-67
2023/04/15 02:38:13;;;;;;;4.10;0.97;;;;;;;11.54;100.00;100670.88;2533198;23;20382;-67
2023/04/15 02:39:15;;;;;;;2.23;0.70;;;;;;;11.57;100.00;100672.78;2533397;23;20473;-67
2023/04/15 02:40:16;;;;;;;3.13;0.60;;;;;;;11.60;100.00;100668.41;2532955;23;20383;-67
2023/04/15 02:41:17;;;;;;;2.50;0.70;;;;;;;11.60;100.00;100671.97;2533291;23;20389;-67
2023/04/15 02:42:17;;;;;;;3.80;0.97;;;;;;;11.62;100.00;100666.75;2532482;23;20160;-67
2023/04/15 02:43:18;;;;;;;2.80;0.80;;;;;;;11.63;100.00;100671.06;2532605;23;20382;-67
2023/04/15 02:44:19;;;;;;;3.00;0.70;;;;;;;11.62;100.00;100665.94;2533200;23;20235;-67
2023/04/15 02:45:22;;;;;;;2.97;1.07;;;;;;;11.61;100.00;100667.97;2533330;23;20548;-66
2023/04/15 02:46:23;;;;;;;5.03;0.97;;;;;;;11.62;100.00;100661.19;2532951;23;20381;-67
2023/04/15 02:47:23;;;;;;;3.70;1.17;;;;;;;11.62;100.00;100665.94;2533218;23;20517;-66
2023/04/15 02:48:24;;;;;;;2.70;0.87;;;;;;;11.60;100.00;100666.41;2533286;23;20155;-67
2023/04/15 02:49:25;;;;;;;3.37;1.27;;;;;;;11.28;100.00;100618.50;2533132;23;20158;-67
2023/04/15 02:50:26;;;;;;;4.77;0.93;;;;;;;11.56;100.00;100662.13;2533083;23;20872;-67
2023/04/15 02:51:30;;;;;;;2.23;0.90;;;;;;;10.83;100.00;100554.72;2532858;23;20185;-67
2023/04/15 02:52:31;;;;;;;3.20;0.70;;;;;;;11.52;100.00;100667.78;2532613;23;20378;-67
2023/04/15 02:53:32;;;;;;;2.67;0.70;;;;;;;11.17;100.00;100621.56;2532291;23;20453;-67
2023/04/15 02:54:32;;;;;;;1.83;0.80;;;;;;;10.66;100.00;100550.41;2533411;23;20597;-67
2023/04/15 02:55:33;;;;;;;1.93;0.80;;;;;;;11.37;100.00;100669.38;2533132;23;20554;-67
2023/04/15 02:56:33;;;;;;;3.30;0.80;;;;;;;11.41;100.00;100670.06;2533205;23;20620;-67
2023/04/15 02:57:36;;;;;;;2.20;0.77;;;;;;;11.40;100.00;100681.59;2533265;23;20157;-66
2023/04/15 02:58:37;;;;;;;3.73;0.83;;;;;;;11.34;100.00;100672.25;2533000;23;20568;-67
2023/04/15 02:59:38;;;;;;;2.90;0.90;;;;;;;11.02;100.00;100628.69;2533100;23;20381;-67
2023/04/15 03:00:38;;;;;;;2.47;0.90;;;;;;;11.30;100.00;100677.09;2532690;23;20596;-67
2023/04/15 03:01:39;;;;;;;1.87;0.60;;;;;;;11.26;100.00;100713.25;2532252;23;20734;-67
2023/04/15 03:02:40;;;;;;;3.90;1.00;;;;;;;11.22;100.00;100668.19;2520339;23;20159;-66
2023/04/15 03:03:41;;;;;;;4.27;1.03;;;;;;;10.10;100.00;100501.94;2519589;23;20346;-67
2023/04/15 03:04:41;;;;;;;2.93;0.97;;;;;;;11.21;100.00;100677.72;2532980;23;20381;-67
2023/04/15 03:05:43;;;;;;;3.67;1.10;;;;;;;10.72;100.00;100601.31;2533129;23;20550;-67
2023/04/15 03:06:43;;;;;;;4.20;0.77;;;;;;;11.16;100.00;100671.91;2533079;23;20154;-67
2023/04/15 03:07:44;;;;;;;3.37;1.20;;;;;;;11.11;100.00;100675.19;2533195;23;20382;-67
2023/04/15 03:08:44;;;;;;;4.77;1.10;;;;;;;11.07;100.00;100677.31;2533080;23;20158;-67
2023/04/15 03:09:46;;;;;;;3.47;1.07;;;;;;;11.03;100.00;100674.63;2533106;23;20205;-67
2023/04/15 03:10:47;;;;;;;2.30;0.80;;;;;;;10.95;100.00;100672.44;2533112;23;20522;-67
2023/04/15 03:11:48;;;;;;;3.97;0.97;;;;;;;10.96;100.00;100680.34;2532284;23;20398;-67
2023/04/15 03:12:48;;;;;;;4.73;1.27;;;;;;;10.94;100.00;100670.88;2520145;23;20217;-67
2023/04/15 03:13:48;;;;;;;2.40;0.83;;;;;;;10.91;100.00;100674.53;2519736;23;20179;-67
2023/04/15 03:14:49;;;;;;;6.63;1.00;;;;;;;10.88;100.00;100683.72;2532980;23;20160;-67
2023/04/15 03:15:49;;;;;;;8.17;1.13;;;;;;;10.86;100.00;100680.59;2520225;23;20176;-67
2023/04/15 03:16:50;;;;;;;5.17;1.00;;;;;;;10.83;100.00;100687.78;2520134;23;20182;-67
2023/04/15 03:17:51;;;;;;;5.27;1.20;;;;;;;10.82;100.00;100694.53;2533133;23;20563;-66
2023/04/15 03:18:51;;;;;;;4.87;1.00;;;;;;;10.68;100.00;100666.38;2532906;23;20729;-67
2023/04/15 03:19:52;;;;;;;3.90;1.17;;;;;;;10.74;100.00;100678.50;2533267;23;20185;-66
2023/04/15 03:20:52;;;;;;;8.50;1.10;;;;;;;10.72;100.00;100686.47;2533014;23;20552;-67
2023/04/15 03:21:53;;;;;;;7.97;1.53;;;;;;;10.62;100.00;100670.88;2532285;23;20212;-67
2023/04/15 03:22:53;;;;;;;1.90;0.60;;;;;;;10.73;100.00;100682.50;2533088;23;20499;-67
2023/04/15 03:23:53;;;;;;;1.50;0.67;;;;;;;10.72;100.00;100681.69;2532477;23;20154;-67
2023/04/15 03:24:54;;;;;;;2.73;0.97;;;;;;;10.73;100.00;100676.94;2531734;23;20164;-67
2023/04/15 03:25:56;;;;;;;4.80;1.57;;;;;;;10.74;100.00;100675.72;2532943;23;20160;-67
2023/04/15 03:26:57;;;;;;;2.63;0.90;;;;;;;10.75;100.00;100674.50;2533145;23;20233;-67
2023/04/15 03:27:58;;;;;;;2.57;1.00;;;;;;;9.91;100.00;100555.34;2533278;23;20390;-67
2023/04/15 03:28:59;;;;;;;2.80;1.10;;;;;;;10.75;100.00;100675.31;2533156;23;20157;-67
2023/04/15 03:29:59;;;;;;;4.37;1.07;;;;;;;10.72;100.00;100675.38;2532824;23;20414;-67
2023/04/15 03:31:00;;;;;;;1.97;0.67;;;;;;;10.23;100.00;100608.03;2533051;23;20232;-67
2023/04/15 03:32:00;;;;;;;4.27;0.90;;;;;;;10.24;100.00;100614.38;2532166;23;20152;-67
2023/04/15 03:33:01;;;;;;;3.93;0.90;;;;;;;10.72;100.00;100681.69;2533030;23;20163;-66
2023/04/15 03:34:01;;;;;;;2.10;0.77;;;;;;;10.68;100.00;100675.47;2532949;23;20500;-67
2023/04/15 03:35:01;;;;;;;2.53;0.90;;;;;;;10.62;100.00;100670.88;2532402;23;20214;-66
2023/04/15 03:36:02;;;;;;;2.47;0.60;;;;;;;10.66;100.00;100679.88;2532961;23;20164;-67
2023/04/15 03:37:03;;;;;;;4.80;1.23;;;;;;;10.64;100.00;100669.22;2533191;23;20185;-66
2023/04/15 03:38:03;;;;;;;2.00;0.60;;;;;;;10.71;100.00;100671.06;2532974;23;20150;-67
2023/04/15 03:39:04;;;;;;;2.57;0.80;;;;;;;10.55;100.00;100644.09;2533063;23;20228;-67
2023/04/15 03:40:05;;;;;;;2.27;0.60;;;;;;;10.43;100.00;100621.84;2532842;23;20504;-67
2023/04/15 03:41:06;;;;;;;4.00;0.60;;;;;;;10.82;100.00;100677.13;2533165;23;20158;-67
2023/04/15 03:42:06;;;;;;;1.53;0.60;;;;;;;10.88;100.00;100683.72;2532113;23;20381;-67
2023/04/15 03:43:07;;;;;;;2.60;0.73;;;;;;;10.93;100.00;100684.00;2533152;23;20161;-67
2023/04/15 03:44:07;;;;;;;3.77;0.93;;;;;;;10.96;100.00;100683.09;2532911;23;20229;-66
2023/04/15 03:45:08;;;;;;;1.73;0.50;;;;;;;10.55;100.00;100633.03;2532434;23;20480;-67
2023/04/15 03:46:08;;;;;;;1.60;0.60;;;;;;;10.99;100.00;100676.69;2532790;23;20165;-67
2023/04/15 03:47:09;;;;;;;1.20;0.70;;;;;;;10.86;100.00;100658.44;2533144;23;20185;-67
2023/04/15 03:48:09;;;;;;;3.67;1.20;;;;;;;10.65;100.00;100625.69;2532888;23;20151;-66
2023/04/15 03:49:10;;;;;;;5.03;1.60;;;;;;;10.51;100.00;100599.06;2533088;23;20563;-66
2023/04/15 03:50:10;;;;;;;2.40;1.43;;;;;;;11.03;100.00;100694.03;2532900;23;20504;-67
2023/04/15 03:51:11;;;;;;;3.67;1.63;;;;;;;10.50;100.00;100607.84;2532966;23;20185;-67
2023/04/15 03:52:11;;;;;;;6.13;1.87;;;;;;;11.12;100.00;100691.41;2531901;23;20157;-67
2023/04/15 03:53:12;;;;;;;4.93;1.60;;;;;;;10.93;100.00;100666.56;2533088;23;20157;-67
2023/04/15 03:54:14;;;;;;;3.47;1.37;;;;;;;11.14;100.00;100693.75;2532833;23;20229;-67
2023/04/15 03:55:14;;;;;;;2.70;1.20;;;;;;;11.17;100.00;100695.69;2532734;23;20442;-67
2023/04/15 03:56:15;;;;;;;2.37;0.90;;;;;;;10.81;100.00;100648.63;2532855;23;20391;-67
2023/04/15 03:57:15;;;;;;;2.93;0.90;;;;;;;10.90;100.00;100670.97;2533130;23;20180;-67
2023/04/15 03:58:15;;;;;;;2.70;0.90;;;;;;;11.07;100.00;100705.03;2532717;23;20154;-66
2023/04/15 03:59:16;;;;;;;5.30;0.90;;;;;;;11.05;100.00;100704.66;2533145;23;20235;-67
2023/04/15 04:00:17;;;;;;;4.53;1.27;;;;;;;11.02;100.00;100708.34;2532716;23;20160;-67
2023/04/15 04:01:18;;;;;;;1.57;0.50;;;;;;;10.33;100.00;100609.78;2532977;23;20148;-67
2023/04/15 04:02:18;;;;;;;1.73;0.60;;;;;;;10.93;100.00;100710.91;2532306;23;20727;-67
2023/04/15 04:03:19;;;;;;;2.60;0.60;;;;;;;10.88;100.00;100715.00;2533052;23;20378;-67
2023/04/15 04:04:20;;;;;;;1.83;0.70;;;;;;;10.85;100.00;100710.31;2532762;23;20186;-67
2023/04/15 04:05:20;;;;;;;2.77;0.50;;;;;;;10.85;100.00;100712.28;2532875;23;20611;-67
2023/04/15 04:06:21;;;;;;;3.13;0.60;;;;;;;10.78;100.00;100713.25;2532067;23;20217;-67
2023/04/15 04:07:22;;;;;;;1.90;0.40;;;;;;;10.89;100.00;100724.09;2532966;23;20150;-67
2023/04/15 04:08:23;;;;;;;2.40;0.40;;;;;;;10.68;100.00;100699.63;2532916;23;20216;-67
2023/04/15 04:09:24;;;;;;;0.80;0.40;;;;;;;10.88;100.00;100728.88;2532886;23;20382;-66
2023/04/15 04:10:25;;;;;;;0.83;0.40;;;;;;;10.80;100.00;100729.44;2532770;23;20509;-67
2023/04/15 04:11:27;;;;;;;2.93;0.70;;;;;;;10.82;100.00;100727.78;2532547;23;20422;-67
2023/04/15 04:12:27;;;;;;;3.33;0.90;;;;;;;10.53;100.00;100704.72;2532422;23;20385;-67
2023/04/15 04:13:27;;;;;;;2.33;0.70;;;;;;;10.84;100.00;100730.94;2532819;23;20386;-67
2023/04/15 04:14:28;;;;;;;1.80;0.80;;;;;;;9.94;100.00;100584.94;2532868;23;20162;-67
2023/04/15 04:15:29;;;;;;;2.20;0.60;;;;;;;10.74;100.00;100712.56;2532791;23;20161;-67
2023/04/15 04:16:29;;;;;;;3.63;1.30;;;;;;;10.52;100.00;100691.28;2519130;23;20238;-67
2023/04/15 04:17:30;;;;;;;1.30;0.67;;;;;;;10.78;100.00;100723.56;2520102;23;20625;-67
2023/04/15 04:18:31;;;;;;;4.30;1.97;;;;;;;10.89;100.00;100737.94;2532819;23;20146;-67
2023/04/15 04:19:32;;;;;;;5.23;2.20;;;;;;;10.91;100.00;100741.84;2532805;23;20548;-67
2023/04/15 04:20:33;;;;;;;7.10;2.27;;;;;;;10.19;100.00;100632.25;2532905;23;20521;-67
2023/04/15 04:21:33;;;;;;;4.17;2.10;;;;;;;10.51;100.00;100671.09;2532095;23;20225;-67
2023/04/15 04:22:40;;;;;;;6.77;2.20;;;;;;;10.94;100.00;100742.97;2532565;23;20225;-67
2023/04/15 04:23:41;;;;;;;2.93;1.70;;;;;;;10.99;100.00;100729.38;2532805;23;20233;-66
2023/04/15 04:24:41;;;;;;;3.27;1.77;;;;;;;10.94;100.00;100721.59;2532859;23;20860;-67
2023/04/15 04:25:42;;;;;;;1.57;0.90;;;;;;;10.79;100.00;100706.50;2532794;23;20600;-67
2023/04/15 04:26:42;;;;;;;3.47;1.30;;;;;;;11.03;100.00;100738.41;2531958;23;20154;-67
2023/04/15 04:27:44;;;;;;;2.37;1.30;;;;;;;10.13;100.00;100583.34;2532752;23;20667;-67
2023/04/15 04:28:44;;;;;;;2.63;1.40;;;;;;;11.15;100.00;100736.91;2532768;23;20158;-67
2023/04/15 04:29:46;;;;;;;2.20;1.03;;;;;;;11.16;100.00;100733.72;2532455;23;20452;-67
2023/04/15 04:30:47;;;;;;;2.63;1.23;;;;;;;11.00;100.00;100705.19;2519883;23;20159;-67
2023/04/15 04:31:48;;;;;;;3.53;1.30;;;;;;;11.27;100.00;100739.00;2519168;23;20434;-67
2023/04/15 04:34:07;;;;;;;3.80;1.43;;;;;;;11.33;100.00;100742.81;2532627;23;20227;-67
2023/04/15 04:35:08;;;;;;;3.03;1.17;;;;;;;11.33;100.00;100742.81;2532928;23;20412;-67
2023/04/15 04:36:08;;;;;;;5.30;1.70;;;;;;;11.37;100.00;100749.84;2532671;23;20481;-67
2023/04/15 04:37:09;;;;;;;3.37;1.20;;;;;;;11.38;100.00;100743.06;2532082;23;20182;-67
2023/04/15 04:38:09;;;;;;;3.07;1.10;;;;;;;11.43;100.00;100752.88;2532752;23;20161;-67
2023/04/15 04:39:10;;;;;;;3.57;1.20;;;;;;;11.47;100.00;100745.25;2532859;23;20161;-67
2023/04/15 04:40:11;;;;;;;2.50;0.97;;;;;;;11.50;100.00;100744.38;2532562;23;20160;-67
2023/04/15 04:41:11;;;;;;;3.63;1.00;;;;;;;11.53;100.00;100743.50;2532939;23;20157;-66